Impacts METAR Board INFO
IDs:

KJFK - New York/Kennedy Int, NY, US

Updated at: 0136 UTC 25 Feb 2018
Potential Impact None Slight Moderate High
Time24/13Z 24/14Z 24/15Z 24/16Z 24/17Z 24/18Z 24/19Z 24/20Z 24/21Z 24/22Z 24/23Z 25/00Z 25/01Z
VIS8 7 10 10 10 9 10 10 3 9 10 10 6
CIG250 220 100 100 90 85 70 90 60 47 60 60 55
CoverBKNBKNBKNBKNOVCOVCOVCOVCOVCOVCOVCOVCOVC
FltCatVFRVFRVFRVFRVFRVFRVFRVFRMVFRVFRVFRVFRVFR
WX-------------RA--RA-RA-----RA BR
WDir2902403303202502403303601010204020
WSpd8 7 10 8 8 8 9 8 6 6 8 5 4
WGst-- -- -- -- -- -- -- -- -- -- -- -- --
Raw hourly METARs
KJFK 241251Z 29008KT 8SM FEW014 SCT200 BKN250 08/07 A3018 RMK AO2 SLP220 T00830067
KJFK 241351Z 24007KT 7SM BKN220 BKN250 08/07 A3018 RMK AO2 SLP218 T00830067
KJFK 241451Z 33010KT 10SM BKN100 BKN250 11/06 A3016 RMK AO2 SLP214 T01110056 58008
KJFK 241551Z 32008KT 10SM BKN100 BKN250 11/05 A3017 RMK AO2 SLP216 T01110050
KJFK 241651Z 25008KT 220V290 10SM BKN090 BKN110 OVC250 12/05 A3019 RMK AO2 PRESRR SLP222 T01170050
KJFK 241751Z 24008KT 9SM OVC085 09/07 A3016 RMK AO2 WSHFT 1652 RAB21E39 SLP212 P0000 60000 T00940072 10122 20067 58002
KJFK 241851Z 33009KT 10SM -RA BKN070 OVC095 12/04 A3014 RMK AO2 RAB1754E05B43 SLP207 P0000 T01170044
KJFK 241951Z 36008KT 10SM SCT070 BKN090 OVC110 12/04 A3014 RMK AO2 RAE1853B30E42 SLP205 P0000 T01170044
KJFK 242051Z 01006KT 3SM RA OVC060 09/07 A3018 RMK AO2 RAB04 SLP219 P0005 60005 T00940067 53007
KJFK 242151Z 01006KT 9SM -RA BKN047 OVC060 09/07 A3018 RMK AO2 SLP218 P0001 T00890072
KJFK 242251Z 02008KT 10SM FEW047 OVC060 08/07 A3018 RMK AO2 RAE41 SLP221 P0000 T00830067
KJFK 242351Z 04005KT 10SM FEW011 OVC060 08/07 A3019 RMK AO2 RAB2259E15 SLP221 P0000 60006 T00830072 10122 20083 53003
KJFK 250051Z 02004KT 6SM -RA BR FEW042 OVC055 08/08 A3019 RMK AO2 RAB39 SLP224 P0000 T00830078